»·PEaware :: N217 KPDX-KYKM

N217 :: KPDX-KYKM

FLIGHT INFORMATION

Flight Status: Arrived
Operator: Privately registered:
United States
More flights under this callsign
Pilot: Charles K. (26933)
Aircraft: CESSNA 172 SKYHAWK
(C172)
More flights by this aircraft type
Origin: KPDX Portland Intl
United States
Destination: KYKM Yakima Air Term/Mcallister
United States
More flights between these airports :: More routes between these airports
Route: +
File this flight plan on PilotEdge
Remarks: nff
Altitude:
(Current/Filed)
7,500ft
Speed:
(Current/Filed)
0kts
Departed: 05-May-20 12:16 PM
Arrived: 05-May-20 01:00 PM
Distance/Time
Traveled:
104nm/0:44
Distance/Time
To Go:
Arrived

Flight Plot

Page will automatically refresh every two minutes.


Map Options




Map Legend


Flown Route
Filed Route
Departure Airport
Arrival Airport
Navaid (VOR, NDB)
Fix

Horizontal Profiles

Position Reports

Time Latitude Longitude Heading Altitude Ground
Speed
05-May-20 12:03 45.585616 -122.605292 179 27ft 0kts
05-May-20 12:04 45.585616 -122.605292 179 27ft 0kts
05-May-20 12:05 45.585616 -122.605292 179 27ft 0kts
05-May-20 12:06 45.585616 -122.605292 179 27ft 0kts
05-May-20 12:07 45.585616 -122.605292 179 27ft 0kts
05-May-20 12:08 45.585616 -122.605292 179 27ft 0kts
05-May-20 12:09 45.585616 -122.605292 179 27ft 0kts
05-May-20 12:10 45.585754 -122.605019 40 27ft 12kts
05-May-20 12:11 45.584465 -122.597286 117 27ft 30kts
05-May-20 12:12 45.580163 -122.586120 119 27ft 23kts
05-May-20 12:13 45.579911 -122.584824 62 27ft 0kts
05-May-20 12:14 45.579911 -122.584824 62 27ft 0kts
05-May-20 12:15 45.584799 -122.595508 297 220ft 80kts
05-May-20 12:16 45.597094 -122.628194 298 930ft 101kts
05-May-20 12:17 45.618577 -122.633338 56 1536ft 113kts
05-May-20 12:18 45.629520 -122.592806 79 2211ft 107kts
05-May-20 12:19 45.633225 -122.551333 80 2894ft 103kts
05-May-20 12:20 45.637068 -122.511057 74 3590ft 99kts
05-May-20 12:21 45.649226 -122.476395 56 4288ft 96kts
05-May-20 12:22 45.664119 -122.445284 55 4974ft 92kts
05-May-20 12:23 45.678497 -122.415995 56 5657ft 87kts
05-May-20 12:24 45.692021 -122.388480 57 6338ft 80kts
05-May-20 12:25 45.704138 -122.363906 58 7006ft 68kts
05-May-20 12:26 45.717517 -122.336291 59 7142ft 111kts
05-May-20 12:27 45.736485 -122.297266 59 7136ft 122kts
05-May-20 12:28 45.756073 -122.257211 59 7136ft 122kts
05-May-20 12:29 45.775630 -122.217158 59 7136ft 122kts
05-May-20 12:30 45.795135 -122.177145 59 7137ft 122kts
05-May-20 12:31 45.814602 -122.137215 59 7136ft 121kts
05-May-20 12:32 45.833978 -122.097445 59 7136ft 121kts
05-May-20 12:33 45.853249 -122.057762 59 7137ft 121kts
05-May-20 12:34 45.874855 -122.013286 58 7136ft 121kts
05-May-20 12:35 45.913746 -121.933467 59 7136ft 121kts
05-May-20 12:36 45.952287 -121.853533 59 7135ft 121kts
05-May-20 12:37 45.990993 -121.773169 59 7140ft 121kts
05-May-20 12:38 46.027319 -121.697437 59 7136ft 121kts
05-May-20 12:39 46.065024 -121.618639 59 7135ft 121kts
05-May-20 12:40 46.102969 -121.539175 59 7351ft 114kts
05-May-20 12:41 46.139433 -121.462531 58 7491ft 121kts
05-May-20 12:42 46.176531 -121.384364 58 7493ft 123kts
05-May-20 12:43 46.214703 -121.303746 59 7495ft 120kts
05-May-20 12:44 46.252574 -121.223431 59 7496ft 120kts
05-May-20 12:45 46.290464 -121.142859 59 7499ft 120kts
05-May-20 12:46 46.328162 -121.061893 59 7502ft 122kts
05-May-20 12:47 46.366993 -120.978502 59 6833ft 128kts
05-May-20 12:48 46.403570 -120.900043 58 5789ft 127kts
05-May-20 12:49 46.423215 -120.857868 57 5230ft 126kts
05-May-20 12:50 46.427143 -120.849477 57 5119ft 126kts
05-May-20 12:51 46.440036 -120.821688 57 4752ft 126kts
05-May-20 12:52 46.459611 -120.779543 56 4195ft 126kts
05-May-20 12:53 46.490215 -120.713530 56 3324ft 127kts
05-May-20 12:54 46.529861 -120.627588 56 2188ft 126kts
05-May-20 12:55 46.555969 -120.566986 86 2097ft 107kts
05-May-20 12:56 46.547697 -120.528976 112 2029ft 89kts
05-May-20 12:57 46.554149 -120.504135 8 1500ft 84kts
05-May-20 12:58 46.564124 -120.526325 286 1199ft 70kts
05-May-20 12:59 46.568777 -120.539504 7 1103ft 6kts
05-May-20 13:00 46.569700 -120.538302 357 1103ft 0kts

Navigation Log

Ident Type
Flight plan parsing failed, navigation log unavailable